sensor_id;sensor_type;location;lat;lon;timestamp;P1;durP1;ratioP1;P2;durP2;ratioP2
32236;SDS011;18726;44.732;10.550;2023-06-04T00:02:05;29.23;;;23.75;;
32236;SDS011;18726;44.732;10.550;2023-06-04T00:05:09;27.55;;;21.92;;
32236;SDS011;18726;44.732;10.550;2023-06-04T00:08:13;26.42;;;22.38;;
32236;SDS011;18726;44.732;10.550;2023-06-04T00:11:17;34.63;;;28.75;;
32236;SDS011;18726;44.732;10.550;2023-06-04T00:14:21;33.20;;;29.55;;
32236;SDS011;18726;44.732;10.550;2023-06-04T00:17:25;35.45;;;26.58;;
32236;SDS011;18726;44.732;10.550;2023-06-04T00:20:29;30.02;;;25.73;;
32236;SDS011;18726;44.732;10.550;2023-06-04T00:23:32;33.20;;;26.65;;
32236;SDS011;18726;44.732;10.550;2023-06-04T00:26:36;39.65;;;23.85;;
32236;SDS011;18726;44.732;10.550;2023-06-04T00:29:39;30.23;;;24.85;;
32236;SDS011;18726;44.732;10.550;2023-06-04T00:32:43;27.92;;;24.33;;
32236;SDS011;18726;44.732;10.550;2023-06-04T00:35:46;23.00;;;19.60;;
32236;SDS011;18726;44.732;10.550;2023-06-04T00:38:50;19.65;;;16.38;;
32236;SDS011;18726;44.732;10.550;2023-06-04T00:41:53;21.40;;;19.05;;
32236;SDS011;18726;44.732;10.550;2023-06-04T00:44:58;16.85;;;15.07;;
32236;SDS011;18726;44.732;10.550;2023-06-04T00:48:02;26.23;;;23.23;;
32236;SDS011;18726;44.732;10.550;2023-06-04T00:51:05;19.52;;;17.70;;
32236;SDS011;18726;44.732;10.550;2023-06-04T00:54:09;18.17;;;14.85;;
32236;SDS011;18726;44.732;10.550;2023-06-04T00:57:15;27.95;;;22.33;;
32236;SDS011;18726;44.732;10.550;2023-06-04T01:00:18;31.23;;;25.23;;
32236;SDS011;18726;44.732;10.550;2023-06-04T01:03:22;30.67;;;27.48;;
32236;SDS011;18726;44.732;10.550;2023-06-04T01:06:36;30.02;;;25.42;;
32236;SDS011;18726;44.732;10.550;2023-06-04T01:09:43;34.67;;;27.15;;
32236;SDS011;18726;44.732;10.550;2023-06-04T01:12:48;32.58;;;26.65;;
32236;SDS011;18726;44.732;10.550;2023-06-04T01:15:51;31.85;;;28.48;;
32236;SDS011;18726;44.732;10.550;2023-06-04T01:18:56;33.67;;;29.50;;
32236;SDS011;18726;44.732;10.550;2023-06-04T01:22:04;34.25;;;28.42;;
32236;SDS011;18726;44.732;10.550;2023-06-04T01:28:35;37.25;;;27.70;;
32236;SDS011;18726;44.732;10.550;2023-06-04T01:31:40;22.73;;;20.15;;
32236;SDS011;18726;44.732;10.550;2023-06-04T01:34:45;37.45;;;27.27;;
32236;SDS011;18726;44.732;10.550;2023-06-04T01:37:49;33.70;;;29.58;;
32236;SDS011;18726;44.732;10.550;2023-06-04T01:40:54;37.92;;;30.77;;
32236;SDS011;18726;44.732;10.550;2023-06-04T01:44:00;46.28;;;34.55;;
32236;SDS011;18726;44.732;10.550;2023-06-04T01:47:04;56.78;;;40.65;;
32236;SDS011;18726;44.732;10.550;2023-06-04T01:50:08;59.65;;;41.50;;
32236;SDS011;18726;44.732;10.550;2023-06-04T01:53:12;64.68;;;46.83;;
32236;SDS011;18726;44.732;10.550;2023-06-04T01:56:16;77.60;;;47.13;;
32236;SDS011;18726;44.732;10.550;2023-06-04T01:59:19;71.72;;;48.58;;
32236;SDS011;18726;44.732;10.550;2023-06-04T02:02:23;65.45;;;46.08;;
32236;SDS011;18726;44.732;10.550;2023-06-04T02:05:27;79.90;;;48.67;;
32236;SDS011;18726;44.732;10.550;2023-06-04T02:08:31;62.42;;;46.13;;
32236;SDS011;18726;44.732;10.550;2023-06-04T02:11:36;55.38;;;38.75;;
32236;SDS011;18726;44.732;10.550;2023-06-04T02:14:40;53.17;;;38.20;;
32236;SDS011;18726;44.732;10.550;2023-06-04T02:17:50;51.20;;;34.92;;
32236;SDS011;18726;44.732;10.550;2023-06-04T02:20:58;38.63;;;28.52;;
32236;SDS011;18726;44.732;10.550;2023-06-04T02:24:02;36.47;;;26.08;;
32236;SDS011;18726;44.732;10.550;2023-06-04T02:27:06;31.92;;;23.17;;
32236;SDS011;18726;44.732;10.550;2023-06-04T02:30:11;56.90;;;37.08;;
32236;SDS011;18726;44.732;10.550;2023-06-04T02:33:15;45.10;;;33.33;;
32236;SDS011;18726;44.732;10.550;2023-06-04T02:36:19;53.83;;;38.78;;
32236;SDS011;18726;44.732;10.550;2023-06-04T02:39:23;54.53;;;36.70;;
32236;SDS011;18726;44.732;10.550;2023-06-04T02:42:27;57.08;;;38.42;;
32236;SDS011;18726;44.732;10.550;2023-06-04T02:45:30;52.92;;;35.88;;
32236;SDS011;18726;44.732;10.550;2023-06-04T02:48:33;46.17;;;32.05;;
32236;SDS011;18726;44.732;10.550;2023-06-04T02:51:37;40.42;;;24.08;;
32236;SDS011;18726;44.732;10.550;2023-06-04T02:54:41;27.80;;;22.98;;
32236;SDS011;18726;44.732;10.550;2023-06-04T02:57:44;32.97;;;23.50;;
32236;SDS011;18726;44.732;10.550;2023-06-04T03:00:48;24.25;;;16.70;;
32236;SDS011;18726;44.732;10.550;2023-06-04T03:03:52;38.42;;;28.45;;
32236;SDS011;18726;44.732;10.550;2023-06-04T03:06:56;44.60;;;28.80;;
32236;SDS011;18726;44.732;10.550;2023-06-04T03:10:01;42.90;;;30.25;;
32236;SDS011;18726;44.732;10.550;2023-06-04T03:13:08;33.80;;;23.65;;
32236;SDS011;18726;44.732;10.550;2023-06-04T03:16:11;23.23;;;17.83;;
32236;SDS011;18726;44.732;10.550;2023-06-04T03:19:15;27.13;;;21.23;;
32236;SDS011;18726;44.732;10.550;2023-06-04T03:22:20;17.45;;;15.13;;
32236;SDS011;18726;44.732;10.550;2023-06-04T03:25:23;21.92;;;14.50;;
32236;SDS011;18726;44.732;10.550;2023-06-04T03:28:28;18.75;;;13.40;;
32236;SDS011;18726;44.732;10.550;2023-06-04T03:31:31;14.13;;;12.63;;
32236;SDS011;18726;44.732;10.550;2023-06-04T03:34:35;18.33;;;13.23;;
32236;SDS011;18726;44.732;10.550;2023-06-04T03:37:40;15.77;;;14.00;;
32236;SDS011;18726;44.732;10.550;2023-06-04T03:40:45;22.23;;;15.82;;
32236;SDS011;18726;44.732;10.550;2023-06-04T03:43:49;13.82;;;12.45;;
32236;SDS011;18726;44.732;10.550;2023-06-04T03:46:53;14.63;;;12.20;;
32236;SDS011;18726;44.732;10.550;2023-06-04T03:49:57;14.60;;;13.07;;
32236;SDS011;18726;44.732;10.550;2023-06-04T03:53:02;14.93;;;11.02;;
32236;SDS011;18726;44.732;10.550;2023-06-04T03:56:08;13.52;;;10.45;;
32236;SDS011;18726;44.732;10.550;2023-06-04T03:59:13;13.60;;;12.23;;
32236;SDS011;18726;44.732;10.550;2023-06-04T04:02:18;16.98;;;13.43;;
32236;SDS011;18726;44.732;10.550;2023-06-04T04:05:22;19.83;;;13.32;;
32236;SDS011;18726;44.732;10.550;2023-06-04T04:08:27;10.68;;;9.57;;
32236;SDS011;18726;44.732;10.550;2023-06-04T04:11:34;11.48;;;10.30;;
32236;SDS011;18726;44.732;10.550;2023-06-04T04:14:39;13.65;;;11.82;;
32236;SDS011;18726;44.732;10.550;2023-06-04T04:17:43;12.82;;;9.85;;
32236;SDS011;18726;44.732;10.550;2023-06-04T04:20:47;11.55;;;10.48;;
32236;SDS011;18726;44.732;10.550;2023-06-04T04:23:50;10.90;;;9.90;;
32236;SDS011;18726;44.732;10.550;2023-06-04T04:26:57;10.10;;;8.48;;
32236;SDS011;18726;44.732;10.550;2023-06-04T04:30:03;9.85;;;8.95;;
32236;SDS011;18726;44.732;10.550;2023-06-04T04:33:08;13.55;;;9.52;;
32236;SDS011;18726;44.732;10.550;2023-06-04T04:36:19;13.63;;;11.82;;
32236;SDS011;18726;44.732;10.550;2023-06-04T04:39:25;10.73;;;9.65;;
32236;SDS011;18726;44.732;10.550;2023-06-04T04:42:31;11.55;;;10.45;;
32236;SDS011;18726;44.732;10.550;2023-06-04T04:45:36;11.50;;;10.40;;
32236;SDS011;18726;44.732;10.550;2023-06-04T04:48:42;10.05;;;8.88;;
32236;SDS011;18726;44.732;10.550;2023-06-04T04:51:46;14.32;;;11.60;;
32236;SDS011;18726;44.732;10.550;2023-06-04T04:54:51;14.00;;;11.20;;
32236;SDS011;18726;44.732;10.550;2023-06-04T04:57:59;16.83;;;13.40;;
32236;SDS011;18726;44.732;10.550;2023-06-04T05:01:03;17.92;;;16.05;;
32236;SDS011;18726;44.732;10.550;2023-06-04T05:04:07;18.17;;;16.27;;
32236;SDS011;18726;44.732;10.550;2023-06-04T05:07:11;17.88;;;16.08;;
32236;SDS011;18726;44.732;10.550;2023-06-04T05:10:16;33.60;;;21.77;;
32236;SDS011;18726;44.732;10.550;2023-06-04T05:13:20;21.70;;;19.50;;
32236;SDS011;18726;44.732;10.550;2023-06-04T05:16:31;20.17;;;15.32;;
32236;SDS011;18726;44.732;10.550;2023-06-04T05:19:36;12.93;;;11.65;;
32236;SDS011;18726;44.732;10.550;2023-06-04T05:22:40;15.80;;;14.30;;
32236;SDS011;18726;44.732;10.550;2023-06-04T05:25:45;16.95;;;14.90;;
32236;SDS011;18726;44.732;10.550;2023-06-04T05:28:49;18.42;;;16.45;;
32236;SDS011;18726;44.732;10.550;2023-06-04T05:31:54;16.10;;;13.43;;
32236;SDS011;18726;44.732;10.550;2023-06-04T05:34:59;18.35;;;15.05;;
32236;SDS011;18726;44.732;10.550;2023-06-04T05:38:07;18.42;;;15.25;;
32236;SDS011;18726;44.732;10.550;2023-06-04T05:41:11;15.88;;;13.80;;
32236;SDS011;18726;44.732;10.550;2023-06-04T05:44:17;18.45;;;10.88;;
32236;SDS011;18726;44.732;10.550;2023-06-04T05:47:21;16.38;;;14.55;;
32236;SDS011;18726;44.732;10.550;2023-06-04T05:50:27;18.75;;;16.35;;
32236;SDS011;18726;44.732;10.550;2023-06-04T05:53:32;17.90;;;15.73;;
32236;SDS011;18726;44.732;10.550;2023-06-04T05:56:36;18.35;;;15.77;;
32236;SDS011;18726;44.732;10.550;2023-06-04T05:59:40;12.52;;;11.23;;
32236;SDS011;18726;44.732;10.550;2023-06-04T06:02:47;22.08;;;11.20;;
32236;SDS011;18726;44.732;10.550;2023-06-04T06:06:07;19.13;;;13.20;;
32236;SDS011;18726;44.732;10.550;2023-06-04T06:09:14;19.73;;;11.88;;
32236;SDS011;18726;44.732;10.550;2023-06-04T06:12:19;14.48;;;10.50;;
32236;SDS011;18726;44.732;10.550;2023-06-04T06:15:23;10.68;;;9.60;;
32236;SDS011;18726;44.732;10.550;2023-06-04T06:18:28;11.85;;;9.02;;
32236;SDS011;18726;44.732;10.550;2023-06-04T06:21:32;16.25;;;12.85;;
32236;SDS011;18726;44.732;10.550;2023-06-04T06:24:35;15.60;;;12.07;;
32236;SDS011;18726;44.732;10.550;2023-06-04T06:27:39;18.52;;;15.57;;
32236;SDS011;18726;44.732;10.550;2023-06-04T06:30:44;20.33;;;17.60;;
32236;SDS011;18726;44.732;10.550;2023-06-04T06:33:47;19.77;;;17.70;;
32236;SDS011;18726;44.732;10.550;2023-06-04T06:36:50;19.58;;;16.27;;
32236;SDS011;18726;44.732;10.550;2023-06-04T06:39:54;21.25;;;18.83;;
32236;SDS011;18726;44.732;10.550;2023-06-04T06:42:57;24.17;;;19.52;;
32236;SDS011;18726;44.732;10.550;2023-06-04T06:46:00;15.18;;;13.57;;
32236;SDS011;18726;44.732;10.550;2023-06-04T06:49:04;27.45;;;19.55;;
32236;SDS011;18726;44.732;10.550;2023-06-04T06:52:08;18.65;;;16.70;;
32236;SDS011;18726;44.732;10.550;2023-06-04T06:55:13;18.05;;;14.02;;
32236;SDS011;18726;44.732;10.550;2023-06-04T06:58:17;23.52;;;21.15;;
32236;SDS011;18726;44.732;10.550;2023-06-04T07:01:20;18.55;;;16.85;;
32236;SDS011;18726;44.732;10.550;2023-06-04T07:04:24;26.35;;;22.30;;
32236;SDS011;18726;44.732;10.550;2023-06-04T07:07:28;24.23;;;21.87;;
32236;SDS011;18726;44.732;10.550;2023-06-04T07:10:32;21.60;;;19.55;;
32236;SDS011;18726;44.732;10.550;2023-06-04T07:13:36;27.52;;;24.67;;
32236;SDS011;18726;44.732;10.550;2023-06-04T07:16:39;25.45;;;22.85;;
32236;SDS011;18726;44.732;10.550;2023-06-04T07:19:44;26.45;;;23.75;;
32236;SDS011;18726;44.732;10.550;2023-06-04T07:22:47;23.88;;;21.48;;
32236;SDS011;18726;44.732;10.550;2023-06-04T07:25:51;30.30;;;22.88;;
32236;SDS011;18726;44.732;10.550;2023-06-04T07:28:55;23.80;;;20.38;;
32236;SDS011;18726;44.732;10.550;2023-06-04T07:31:58;26.00;;;23.50;;
32236;SDS011;18726;44.732;10.550;2023-06-04T07:35:02;26.77;;;23.98;;
32236;SDS011;18726;44.732;10.550;2023-06-04T07:38:05;20.67;;;18.45;;
32236;SDS011;18726;44.732;10.550;2023-06-04T07:41:09;25.08;;;22.70;;
32236;SDS011;18726;44.732;10.550;2023-06-04T07:44:13;25.00;;;22.52;;
32236;SDS011;18726;44.732;10.550;2023-06-04T07:47:17;19.30;;;17.17;;
32236;SDS011;18726;44.732;10.550;2023-06-04T07:50:20;19.40;;;17.42;;
32236;SDS011;18726;44.732;10.550;2023-06-04T07:53:23;18.23;;;16.27;;
32236;SDS011;18726;44.732;10.550;2023-06-04T07:56:28;25.80;;;22.33;;
32236;SDS011;18726;44.732;10.550;2023-06-04T07:59:32;18.13;;;16.52;;
32236;SDS011;18726;44.732;10.550;2023-06-04T08:02:36;24.77;;;22.27;;
32236;SDS011;18726;44.732;10.550;2023-06-04T08:05:39;21.02;;;19.20;;
32236;SDS011;18726;44.732;10.550;2023-06-04T08:08:43;23.05;;;20.85;;
32236;SDS011;18726;44.732;10.550;2023-06-04T08:11:51;24.02;;;21.60;;
32236;SDS011;18726;44.732;10.550;2023-06-04T08:14:55;24.05;;;21.75;;
32236;SDS011;18726;44.732;10.550;2023-06-04T08:18:00;24.58;;;20.70;;
32236;SDS011;18726;44.732;10.550;2023-06-04T08:21:04;19.55;;;17.73;;
32236;SDS011;18726;44.732;10.550;2023-06-04T08:24:09;20.05;;;18.15;;
32236;SDS011;18726;44.732;10.550;2023-06-04T08:27:13;18.08;;;16.38;;
32236;SDS011;18726;44.732;10.550;2023-06-04T08:30:17;24.08;;;21.83;;
32236;SDS011;18726;44.732;10.550;2023-06-04T08:33:21;25.70;;;23.00;;
32236;SDS011;18726;44.732;10.550;2023-06-04T08:36:24;25.27;;;22.33;;
32236;SDS011;18726;44.732;10.550;2023-06-04T08:39:28;27.45;;;23.75;;
32236;SDS011;18726;44.732;10.550;2023-06-04T08:42:34;26.98;;;24.48;;
32236;SDS011;18726;44.732;10.550;2023-06-04T08:45:44;26.23;;;23.58;;
32236;SDS011;18726;44.732;10.550;2023-06-04T08:48:54;25.20;;;22.80;;
32236;SDS011;18726;44.732;10.550;2023-06-04T08:51:59;21.63;;;19.58;;
32236;SDS011;18726;44.732;10.550;2023-06-04T08:55:03;29.73;;;26.80;;
32236;SDS011;18726;44.732;10.550;2023-06-04T08:58:08;26.98;;;24.23;;
32236;SDS011;18726;44.732;10.550;2023-06-04T09:01:14;22.63;;;19.25;;
32236;SDS011;18726;44.732;10.550;2023-06-04T09:04:18;28.85;;;25.98;;
32236;SDS011;18726;44.732;10.550;2023-06-04T09:07:22;26.42;;;23.85;;
32236;SDS011;18726;44.732;10.550;2023-06-04T09:10:28;25.90;;;23.58;;
32236;SDS011;18726;44.732;10.550;2023-06-04T09:13:33;18.95;;;16.95;;
32236;SDS011;18726;44.732;10.550;2023-06-04T09:16:48;24.30;;;22.08;;
32236;SDS011;18726;44.732;10.550;2023-06-04T09:19:54;25.65;;;23.13;;
32236;SDS011;18726;44.732;10.550;2023-06-04T09:22:57;25.10;;;22.63;;
32236;SDS011;18726;44.732;10.550;2023-06-04T09:26:10;24.85;;;22.45;;
32236;SDS011;18726;44.732;10.550;2023-06-04T09:29:14;22.02;;;19.95;;
32236;SDS011;18726;44.732;10.550;2023-06-04T09:35:30;24.38;;;21.83;;
32236;SDS011;18726;44.732;10.550;2023-06-04T09:38:34;26.83;;;24.35;;
32236;SDS011;18726;44.732;10.550;2023-06-04T09:41:39;23.95;;;21.55;;
32236;SDS011;18726;44.732;10.550;2023-06-04T09:44:43;25.77;;;23.02;;
32236;SDS011;18726;44.732;10.550;2023-06-04T09:47:50;31.00;;;21.63;;
32236;SDS011;18726;44.732;10.550;2023-06-04T09:50:53;22.27;;;20.08;;
32236;SDS011;18726;44.732;10.550;2023-06-04T09:54:01;18.80;;;16.90;;
32236;SDS011;18726;44.732;10.550;2023-06-04T09:57:10;28.80;;;22.75;;
32236;SDS011;18726;44.732;10.550;2023-06-04T10:00:19;26.33;;;23.90;;
32236;SDS011;18726;44.732;10.550;2023-06-04T10:03:25;21.05;;;18.92;;
32236;SDS011;18726;44.732;10.550;2023-06-04T10:06:33;20.77;;;18.73;;
32236;SDS011;18726;44.732;10.550;2023-06-04T10:09:39;16.85;;;15.10;;
32236;SDS011;18726;44.732;10.550;2023-06-04T10:12:50;18.10;;;15.73;;
32236;SDS011;18726;44.732;10.550;2023-06-04T10:16:08;20.35;;;18.45;;
32236;SDS011;18726;44.732;10.550;2023-06-04T10:19:15;19.40;;;17.58;;
32236;SDS011;18726;44.732;10.550;2023-06-04T10:22:21;17.58;;;16.00;;
32236;SDS011;18726;44.732;10.550;2023-06-04T10:25:25;21.13;;;19.27;;
32236;SDS011;18726;44.732;10.550;2023-06-04T10:28:29;19.83;;;18.02;;
32236;SDS011;18726;44.732;10.550;2023-06-04T10:31:33;16.30;;;14.60;;
32236;SDS011;18726;44.732;10.550;2023-06-04T10:34:37;21.85;;;19.55;;
32236;SDS011;18726;44.732;10.550;2023-06-04T10:37:41;18.55;;;16.65;;
32236;SDS011;18726;44.732;10.550;2023-06-04T10:40:45;15.65;;;14.27;;
32236;SDS011;18726;44.732;10.550;2023-06-04T10:43:49;21.80;;;19.75;;
32236;SDS011;18726;44.732;10.550;2023-06-04T10:46:53;20.77;;;18.67;;
32236;SDS011;18726;44.732;10.550;2023-06-04T10:50:06;19.30;;;17.55;;
32236;SDS011;18726;44.732;10.550;2023-06-04T10:53:14;20.88;;;18.88;;
32236;SDS011;18726;44.732;10.550;2023-06-04T10:56:26;20.35;;;18.25;;
32236;SDS011;18726;44.732;10.550;2023-06-04T10:59:31;19.55;;;17.85;;
32236;SDS011;18726;44.732;10.550;2023-06-04T11:02:34;22.20;;;18.73;;
32236;SDS011;18726;44.732;10.550;2023-06-04T11:08:43;18.50;;;16.80;;
32236;SDS011;18726;44.732;10.550;2023-06-04T11:11:55;19.83;;;18.02;;
32236;SDS011;18726;44.732;10.550;2023-06-04T11:15:02;17.38;;;14.65;;
32236;SDS011;18726;44.732;10.550;2023-06-04T11:18:06;15.90;;;14.30;;
32236;SDS011;18726;44.732;10.550;2023-06-04T11:21:10;17.20;;;15.70;;
32236;SDS011;18726;44.732;10.550;2023-06-04T11:24:18;16.77;;;13.38;;
32236;SDS011;18726;44.732;10.550;2023-06-04T11:27:22;17.05;;;15.35;;
32236;SDS011;18726;44.732;10.550;2023-06-04T11:30:26;19.73;;;16.73;;
32236;SDS011;18726;44.732;10.550;2023-06-04T11:33:30;17.48;;;15.77;;
32236;SDS011;18726;44.732;10.550;2023-06-04T11:36:34;17.05;;;15.27;;
32236;SDS011;18726;44.732;10.550;2023-06-04T11:39:38;15.82;;;14.38;;
32236;SDS011;18726;44.732;10.550;2023-06-04T11:42:43;17.00;;;15.40;;
32236;SDS011;18726;44.732;10.550;2023-06-04T11:45:49;16.73;;;14.98;;
32236;SDS011;18726;44.732;10.550;2023-06-04T11:48:53;17.30;;;15.80;;
32236;SDS011;18726;44.732;10.550;2023-06-04T11:51:57;17.02;;;14.43;;
32236;SDS011;18726;44.732;10.550;2023-06-04T11:55:01;16.42;;;14.82;;
32236;SDS011;18726;44.732;10.550;2023-06-04T11:58:05;16.42;;;14.80;;
32236;SDS011;18726;44.732;10.550;2023-06-04T12:01:10;20.95;;;14.68;;
32236;SDS011;18726;44.732;10.550;2023-06-04T12:04:15;15.32;;;13.82;;
32236;SDS011;18726;44.732;10.550;2023-06-04T12:07:20;16.63;;;15.02;;
32236;SDS011;18726;44.732;10.550;2023-06-04T12:10:27;15.70;;;14.10;;
32236;SDS011;18726;44.732;10.550;2023-06-04T12:13:36;15.20;;;13.80;;
32236;SDS011;18726;44.732;10.550;2023-06-04T12:16:41;14.55;;;13.13;;
32236;SDS011;18726;44.732;10.550;2023-06-04T12:19:49;17.08;;;15.38;;
32236;SDS011;18726;44.732;10.550;2023-06-04T12:22:54;22.13;;;16.17;;
32236;SDS011;18726;44.732;10.550;2023-06-04T12:25:58;17.20;;;15.45;;
32236;SDS011;18726;44.732;10.550;2023-06-04T12:29:09;15.77;;;13.63;;
32236;SDS011;18726;44.732;10.550;2023-06-04T12:32:16;17.45;;;15.73;;
32236;SDS011;18726;44.732;10.550;2023-06-04T12:35:20;11.77;;;10.65;;
32236;SDS011;18726;44.732;10.550;2023-06-04T12:38:23;14.48;;;13.10;;
32236;SDS011;18726;44.732;10.550;2023-06-04T12:41:27;15.38;;;13.65;;
32236;SDS011;18726;44.732;10.550;2023-06-04T12:44:32;10.88;;;9.77;;
32236;SDS011;18726;44.732;10.550;2023-06-04T12:47:36;13.73;;;12.43;;
32236;SDS011;18726;44.732;10.550;2023-06-04T12:50:40;12.20;;;11.10;;
32236;SDS011;18726;44.732;10.550;2023-06-04T12:53:44;13.27;;;11.98;;
32236;SDS011;18726;44.732;10.550;2023-06-04T12:56:48;14.10;;;12.77;;
32236;SDS011;18726;44.732;10.550;2023-06-04T12:59:52;13.38;;;12.10;;
32236;SDS011;18726;44.732;10.550;2023-06-04T13:02:56;12.93;;;11.68;;
32236;SDS011;18726;44.732;10.550;2023-06-04T13:06:00;12.85;;;11.65;;
32236;SDS011;18726;44.732;10.550;2023-06-04T13:09:04;14.95;;;13.25;;
32236;SDS011;18726;44.732;10.550;2023-06-04T13:12:14;13.40;;;12.20;;
32236;SDS011;18726;44.732;10.550;2023-06-04T13:15:18;15.40;;;13.90;;
32236;SDS011;18726;44.732;10.550;2023-06-04T13:18:22;18.00;;;14.13;;
32236;SDS011;18726;44.732;10.550;2023-06-04T13:21:26;14.68;;;13.13;;
32236;SDS011;18726;44.732;10.550;2023-06-04T13:24:30;17.38;;;15.68;;
32236;SDS011;18726;44.732;10.550;2023-06-04T13:27:33;15.57;;;14.07;;
32236;SDS011;18726;44.732;10.550;2023-06-04T13:30:38;14.20;;;12.80;;
32236;SDS011;18726;44.732;10.550;2023-06-04T13:33:42;15.10;;;13.60;;
32236;SDS011;18726;44.732;10.550;2023-06-04T13:36:46;22.00;;;12.40;;
32236;SDS011;18726;44.732;10.550;2023-06-04T13:39:49;12.50;;;11.20;;
32236;SDS011;18726;44.732;10.550;2023-06-04T13:42:53;14.00;;;12.77;;
32236;SDS011;18726;44.732;10.550;2023-06-04T13:45:56;17.60;;;13.98;;
32236;SDS011;18726;44.732;10.550;2023-06-04T13:49:00;14.00;;;12.70;;
32236;SDS011;18726;44.732;10.550;2023-06-04T13:52:03;13.70;;;12.50;;
32236;SDS011;18726;44.732;10.550;2023-06-04T13:55:07;14.57;;;13.27;;
32236;SDS011;18726;44.732;10.550;2023-06-04T13:58:12;14.45;;;12.98;;
32236;SDS011;18726;44.732;10.550;2023-06-04T14:01:16;15.05;;;12.43;;
32236;SDS011;18726;44.732;10.550;2023-06-04T14:04:20;14.10;;;11.60;;
32236;SDS011;18726;44.732;10.550;2023-06-04T14:07:23;13.45;;;12.20;;
32236;SDS011;18726;44.732;10.550;2023-06-04T14:14:46;13.52;;;12.15;;
32236;SDS011;18726;44.732;10.550;2023-06-04T14:17:50;16.10;;;13.82;;
32236;SDS011;18726;44.732;10.550;2023-06-04T14:20:53;17.73;;;13.45;;
32236;SDS011;18726;44.732;10.550;2023-06-04T14:23:57;15.13;;;13.57;;
32236;SDS011;18726;44.732;10.550;2023-06-04T14:27:01;15.60;;;12.73;;
32236;SDS011;18726;44.732;10.550;2023-06-04T14:30:04;13.88;;;12.43;;
32236;SDS011;18726;44.732;10.550;2023-06-04T14:33:09;14.80;;;13.27;;
32236;SDS011;18726;44.732;10.550;2023-06-04T14:36:13;15.45;;;13.88;;
32236;SDS011;18726;44.732;10.550;2023-06-04T14:39:17;14.48;;;12.25;;
32236;SDS011;18726;44.732;10.550;2023-06-04T14:42:20;15.23;;;12.82;;
32236;SDS011;18726;44.732;10.550;2023-06-04T14:45:24;14.13;;;11.15;;
32236;SDS011;18726;44.732;10.550;2023-06-04T14:48:27;14.70;;;13.32;;
32236;SDS011;18726;44.732;10.550;2023-06-04T14:51:31;17.25;;;15.15;;
32236;SDS011;18726;44.732;10.550;2023-06-04T14:54:34;18.35;;;16.58;;
32236;SDS011;18726;44.732;10.550;2023-06-04T14:57:38;19.20;;;13.95;;
32236;SDS011;18726;44.732;10.550;2023-06-04T15:00:41;19.40;;;14.82;;
32236;SDS011;18726;44.732;10.550;2023-06-04T15:03:45;16.58;;;14.48;;
32236;SDS011;18726;44.732;10.550;2023-06-04T15:06:48;14.60;;;12.63;;
32236;SDS011;18726;44.732;10.550;2023-06-04T15:09:52;13.35;;;11.95;;
32236;SDS011;18726;44.732;10.550;2023-06-04T15:12:56;13.35;;;11.80;;
32236;SDS011;18726;44.732;10.550;2023-06-04T15:16:00;14.23;;;9.57;;
32236;SDS011;18726;44.732;10.550;2023-06-04T15:19:04;8.75;;;7.95;;
32236;SDS011;18726;44.732;10.550;2023-06-04T15:22:08;9.43;;;6.40;;
32236;SDS011;18726;44.732;10.550;2023-06-04T15:25:11;11.20;;;6.72;;
32236;SDS011;18726;44.732;10.550;2023-06-04T15:28:16;10.50;;;6.72;;
32236;SDS011;18726;44.732;10.550;2023-06-04T15:31:20;18.55;;;9.77;;
32236;SDS011;18726;44.732;10.550;2023-06-04T15:34:24;14.27;;;12.10;;
32236;SDS011;18726;44.732;10.550;2023-06-04T15:37:27;13.43;;;12.10;;
32236;SDS011;18726;44.732;10.550;2023-06-04T15:40:31;14.32;;;12.85;;
32236;SDS011;18726;44.732;10.550;2023-06-04T15:43:35;16.42;;;13.85;;
32236;SDS011;18726;44.732;10.550;2023-06-04T15:46:38;11.90;;;10.90;;
32236;SDS011;18726;44.732;10.550;2023-06-04T15:49:42;9.63;;;7.20;;
32236;SDS011;18726;44.732;10.550;2023-06-04T15:52:46;8.32;;;6.20;;
32236;SDS011;18726;44.732;10.550;2023-06-04T15:55:50;4.78;;;4.28;;
32236;SDS011;18726;44.732;10.550;2023-06-04T15:58:54;5.43;;;4.78;;
32236;SDS011;18726;44.732;10.550;2023-06-04T16:01:57;3.88;;;3.55;;
32236;SDS011;18726;44.732;10.550;2023-06-04T16:09:16;5.65;;;4.43;;
32236;SDS011;18726;44.732;10.550;2023-06-04T16:12:20;5.97;;;4.38;;
32236;SDS011;18726;44.732;10.550;2023-06-04T16:15:23;6.60;;;4.47;;
32236;SDS011;18726;44.732;10.550;2023-06-04T16:18:27;4.40;;;3.63;;
32236;SDS011;18726;44.732;10.550;2023-06-04T16:21:31;4.75;;;4.35;;
32236;SDS011;18726;44.732;10.550;2023-06-04T16:24:34;6.90;;;3.85;;
32236;SDS011;18726;44.732;10.550;2023-06-04T16:27:38;4.90;;;4.38;;
32236;SDS011;18726;44.732;10.550;2023-06-04T16:30:41;3.72;;;3.33;;
32236;SDS011;18726;44.732;10.550;2023-06-04T16:33:45;4.93;;;4.43;;
32236;SDS011;18726;44.732;10.550;2023-06-04T16:36:49;3.60;;;3.30;;
32236;SDS011;18726;44.732;10.550;2023-06-04T16:39:52;5.82;;;3.50;;
32236;SDS011;18726;44.732;10.550;2023-06-04T16:42:56;4.60;;;3.75;;
32236;SDS011;18726;44.732;10.550;2023-06-04T16:45:59;5.68;;;4.43;;
32236;SDS011;18726;44.732;10.550;2023-06-04T16:49:03;6.05;;;4.13;;
32236;SDS011;18726;44.732;10.550;2023-06-04T16:52:06;5.00;;;4.60;;
32236;SDS011;18726;44.732;10.550;2023-06-04T16:55:10;13.85;;;3.50;;
32236;SDS011;18726;44.732;10.550;2023-06-04T16:58:17;6.15;;;4.07;;
32236;SDS011;18726;44.732;10.550;2023-06-04T17:01:21;6.53;;;5.50;;
32236;SDS011;18726;44.732;10.550;2023-06-04T17:04:25;8.15;;;7.25;;
32236;SDS011;18726;44.732;10.550;2023-06-04T17:07:28;7.97;;;7.28;;
32236;SDS011;18726;44.732;10.550;2023-06-04T17:10:32;10.48;;;9.05;;
32236;SDS011;18726;44.732;10.550;2023-06-04T17:13:36;14.85;;;9.80;;
32236;SDS011;18726;44.732;10.550;2023-06-04T17:16:40;29.27;;;13.35;;
32236;SDS011;18726;44.732;10.550;2023-06-04T17:19:43;15.65;;;8.27;;
32236;SDS011;18726;44.732;10.550;2023-06-04T17:48:57;10.45;;;8.25;;
32236;SDS011;18726;44.732;10.550;2023-06-04T17:54:06;13.32;;;7.82;;
32236;SDS011;18726;44.732;10.550;2023-06-04T17:57:12;9.15;;;7.82;;
32236;SDS011;18726;44.732;10.550;2023-06-04T18:00:16;11.18;;;9.35;;
32236;SDS011;18726;44.732;10.550;2023-06-04T18:03:20;18.73;;;11.57;;
32236;SDS011;18726;44.732;10.550;2023-06-04T18:06:24;15.20;;;10.73;;
32236;SDS011;18726;44.732;10.550;2023-06-04T18:09:28;13.20;;;9.43;;
32236;SDS011;18726;44.732;10.550;2023-06-04T18:12:33;14.18;;;9.25;;
32236;SDS011;18726;44.732;10.550;2023-06-04T18:15:37;8.43;;;7.63;;
32236;SDS011;18726;44.732;10.550;2023-06-04T18:18:42;9.90;;;8.95;;
32236;SDS011;18726;44.732;10.550;2023-06-04T18:21:46;10.95;;;8.90;;
32236;SDS011;18726;44.732;10.550;2023-06-04T18:24:49;12.68;;;8.88;;
32236;SDS011;18726;44.732;10.550;2023-06-04T18:27:53;10.43;;;8.75;;
32236;SDS011;18726;44.732;10.550;2023-06-04T18:30:56;13.43;;;9.95;;
32236;SDS011;18726;44.732;10.550;2023-06-04T18:34:00;11.23;;;9.98;;